Time;durP1;ratioP1;P1;durP2;ratioP2;P2;SDS_P1;SDS_P2;PMS_P1;PMS_P2;Temp;Humidity;BMP_temperature;BMP_pressure;BME280_temperature;BME280_humidity;BME280_pressure;Samples;Min_cycle;Max_cycle;Signal;HPM_P1;HPM_P2
2022/04/13 00:00:32;;;;;;;10.05;5.32;;;13.10;99.90;;;;;;5040783;28;20108;-71
2022/04/13 00:02:59;;;;;;;10.48;5.60;;;13.00;99.90;;;;;;5044419;28;20037;-72
2022/04/13 00:05:25;;;;;;;10.20;5.30;;;13.00;99.90;;;;;;5045177;28;20557;-72
2022/04/13 00:07:51;;;;;;;11.20;5.65;;;13.00;99.90;;;;;;5024670;28;20049;-72
2022/04/13 00:10:16;;;;;;;9.65;4.97;;;12.90;99.90;;;;;;5045520;28;20091;-71
2022/04/13 00:12:42;;;;;;;10.00;5.55;;;12.90;99.90;;;;;;5040663;28;20506;-72
2022/04/13 00:15:09;;;;;;;12.10;5.63;;;12.80;99.90;;;;;;5041761;28;20122;-72
2022/04/13 00:17:36;;;;;;;12.70;5.38;;;12.80;99.90;;;;;;5042755;28;20506;-71
2022/04/13 00:20:04;;;;;;;11.73;5.30;;;12.70;99.90;;;;;;5042829;28;20077;-72
2022/04/13 00:22:29;;;;;;;10.43;4.70;;;12.70;99.90;;;;;;5040931;28;20577;-71
2022/04/13 00:24:55;;;;;;;11.15;5.38;;;12.60;99.90;;;;;;5042785;28;20060;-72
2022/04/13 00:27:21;;;;;;;9.73;5.25;;;12.60;99.90;;;;;;5023378;28;20482;-71
2022/04/13 00:29:47;;;;;;;10.68;5.55;;;12.60;99.90;;;;;;5042607;28;20473;-72
2022/04/13 00:32:12;;;;;;;9.73;5.22;;;12.60;99.90;;;;;;5024773;28;20406;-72
2022/04/13 00:34:38;;;;;;;9.55;5.25;;;12.50;99.90;;;;;;5048567;28;20124;-72
2022/04/13 00:37:04;;;;;;;11.45;6.15;;;12.50;99.90;;;;;;5046750;28;20406;-71
2022/04/13 00:39:30;;;;;;;11.50;6.68;;;12.40;99.90;;;;;;5048059;28;20135;-71
2022/04/13 00:42:01;;;;;;;12.77;5.45;;;12.60;99.90;;;;;;5046452;28;20079;-71
2022/04/13 00:44:28;;;;;;;12.40;6.47;;;12.30;99.90;;;;;;5049491;28;20063;-72
2022/04/13 00:46:55;;;;;;;10.90;6.18;;;12.30;99.90;;;;;;5046366;28;20095;-72
2022/04/13 00:49:22;;;;;;;10.68;6.15;;;12.30;99.90;;;;;;5043858;28;20326;-72
2022/04/13 00:51:49;;;;;;;12.32;5.93;;;12.30;99.90;;;;;;5047210;28;20091;-72
2022/04/13 00:54:18;;;;;;;16.95;7.13;;;12.20;99.90;;;;;;5047441;28;20084;-72
2022/04/13 00:56:47;;;;;;;12.02;6.45;;;12.20;99.90;;;;;;5041851;28;20057;-72
2022/04/13 00:59:13;;;;;;;12.38;7.40;;;12.20;99.90;;;;;;5048825;28;20056;-72
2022/04/13 01:01:42;;;;;;;11.65;7.28;;;12.20;99.90;;;;;;5057108;28;20041;-71
2022/04/13 01:04:11;;;;;;;14.35;6.53;;;12.20;99.90;;;;;;5039157;28;20048;-71
2022/04/13 01:06:39;;;;;;;16.10;7.82;;;12.20;99.90;;;;;;5052518;28;20111;-72
2022/04/13 01:09:04;;;;;;;12.50;6.78;;;12.10;99.90;;;;;;5041747;28;20041;-72
2022/04/13 01:11:31;;;;;;;12.60;6.97;;;12.10;99.90;;;;;;5042267;28;20106;-71
2022/04/13 01:13:57;;;;;;;12.75;7.25;;;12.10;99.90;;;;;;5039312;28;20053;-71
2022/04/13 01:16:24;;;;;;;14.98;7.20;;;12.00;99.90;;;;;;5057087;28;20073;-72
2022/04/13 01:18:54;;;;;;;12.88;7.65;;;12.00;99.90;;;;;;5016342;28;20523;-71
2022/04/13 01:21:37;;;;;;;17.50;7.65;;;12.00;99.90;;;;;;5056704;28;20422;-71
2022/04/13 01:24:03;;;;;;;15.85;8.43;;;12.00;99.90;;;;;;5034875;28;20098;-72
2022/04/13 01:26:29;;;;;;;13.00;7.00;;;12.00;99.90;;;;;;5029666;28;20048;-72
2022/04/13 01:28:54;;;;;;;14.82;7.80;;;12.00;99.90;;;;;;5022782;28;20554;-71
2022/04/13 01:31:20;;;;;;;18.67;8.85;;;11.90;99.90;;;;;;5024230;28;20084;-72
2022/04/13 01:33:46;;;;;;;13.63;8.68;;;11.80;99.90;;;;;;5023268;28;20041;-72
2022/04/13 01:36:11;;;;;;;13.52;8.10;;;11.90;99.90;;;;;;5042167;28;20085;-72
2022/04/13 01:38:37;;;;;;;16.88;8.98;;;11.90;99.90;;;;;;5011455;28;20450;-71
2022/04/13 01:41:03;;;;;;;15.57;8.52;;;11.90;99.90;;;;;;5022749;28;20041;-71
2022/04/13 01:43:28;;;;;;;17.00;8.20;;;11.90;99.90;;;;;;5029452;28;20498;-72
2022/04/13 01:45:55;;;;;;;14.80;8.50;;;11.80;99.90;;;;;;5012236;28;20413;-72
2022/04/13 01:48:20;;;;;;;17.35;9.65;;;11.80;99.90;;;;;;5013053;28;20371;-71
2022/04/13 01:50:46;;;;;;;16.83;9.40;;;11.80;99.90;;;;;;5015946;28;20064;-71
2022/04/13 01:53:12;;;;;;;17.88;9.82;;;11.90;99.90;;;;;;5026311;28;20405;-72
2022/04/13 01:55:38;;;;;;;16.48;8.90;;;11.80;99.90;;;;;;5052435;28;20512;-71
2022/04/13 01:58:04;;;;;;;15.20;9.02;;;11.80;99.90;;;;;;5043902;28;20045;-71
2022/04/13 02:00:29;;;;;;;18.58;9.68;;;11.80;99.90;;;;;;5060586;28;20056;-71
2022/04/13 02:02:55;;;;;;;19.52;10.48;;;11.80;99.90;;;;;;5047050;28;20048;-72
2022/04/13 02:05:21;;;;;;;16.90;9.55;;;11.70;99.90;;;;;;5034342;28;20051;-73
2022/04/13 02:07:46;;;;;;;17.70;8.93;;;11.70;99.90;;;;;;5064835;28;20051;-71
2022/04/13 02:10:12;;;;;;;16.40;10.18;;;11.70;99.90;;;;;;5034155;28;20040;-71
2022/04/13 02:12:38;;;;;;;16.45;9.32;;;11.70;99.90;;;;;;5065671;28;20047;-71
2022/04/13 02:15:05;;;;;;;20.83;10.55;;;11.70;99.90;;;;;;5045119;28;20040;-71
2022/04/13 02:17:31;;;;;;;17.52;10.13;;;11.70;99.90;;;;;;5045102;28;20067;-71
2022/04/13 02:19:56;;;;;;;18.70;10.15;;;11.70;99.90;;;;;;5049898;28;20052;-71
2022/04/13 02:22:22;;;;;;;20.23;10.57;;;11.70;99.90;;;;;;5047546;28;20383;-71
2022/04/13 02:24:48;;;;;;;22.23;10.70;;;11.70;99.90;;;;;;5043815;28;20068;-71
2022/04/13 02:27:14;;;;;;;17.65;10.85;;;11.60;99.90;;;;;;5049386;28;20083;-71
2022/04/13 02:29:40;;;;;;;18.00;11.40;;;11.70;99.90;;;;;;5049578;28;20098;-71
2022/04/13 02:32:07;;;;;;;17.60;11.20;;;11.70;99.90;;;;;;5053682;28;20036;-71
2022/04/13 02:34:33;;;;;;;16.42;10.50;;;11.60;99.90;;;;;;5045440;28;20107;-71
2022/04/13 02:37:00;;;;;;;20.88;11.55;;;11.60;99.90;;;;;;5066265;28;20041;-71
2022/04/13 02:39:26;;;;;;;19.38;11.85;;;11.60;99.90;;;;;;5056909;28;20037;-71
2022/04/13 02:41:52;;;;;;;21.27;12.02;;;11.60;99.90;;;;;;5067110;28;20479;-70
2022/04/13 02:44:17;;;;;;;21.73;12.40;;;11.60;99.90;;;;;;5068363;28;20084;-71
2022/04/13 02:46:44;;;;;;;25.17;12.63;;;11.60;99.90;;;;;;5048534;28;20072;-71
2022/04/13 02:49:11;;;;;;;21.05;12.02;;;11.60;99.90;;;;;;5046508;28;20543;-71
2022/04/13 02:51:37;;;;;;;18.90;12.10;;;11.60;99.90;;;;;;5038700;28;20045;-71
2022/04/13 02:54:03;;;;;;;22.15;13.02;;;11.60;99.90;;;;;;5046337;28;20047;-71
2022/04/13 02:56:30;;;;;;;21.08;12.30;;;11.50;99.90;;;;;;5032324;28;20199;-71
2022/04/13 02:58:55;;;;;;;23.77;12.50;;;11.50;99.90;;;;;;5034227;28;20555;-71
2022/04/13 03:01:21;;;;;;;20.20;12.45;;;11.50;99.90;;;;;;5066763;28;20048;-71
2022/04/13 03:03:47;;;;;;;25.13;12.93;;;11.40;99.90;;;;;;5048637;28;20090;-71
2022/04/13 03:06:13;;;;;;;24.65;13.02;;;11.40;99.90;;;;;;5046225;28;20500;-71
2022/04/13 03:08:38;;;;;;;19.70;12.98;;;11.40;99.90;;;;;;5041682;28;20119;-71
2022/04/13 03:11:04;;;;;;;20.60;12.68;;;11.40;99.90;;;;;;5068074;28;20029;-71
2022/04/13 03:13:30;;;;;;;24.35;13.77;;;11.40;99.90;;;;;;5023372;28;20535;-71
2022/04/13 03:15:55;;;;;;;23.50;14.15;;;11.30;99.90;;;;;;5050047;28;20119;-71
2022/04/13 03:18:21;;;;;;;22.73;13.80;;;11.30;99.90;;;;;;5062628;28;20071;-71
2022/04/13 03:20:47;;;;;;;25.42;13.95;;;11.20;99.90;;;;;;5030894;28;20102;-71
2022/04/13 03:23:13;;;;;;;23.88;14.55;;;11.20;99.90;;;;;;5033214;28;20045;-71
2022/04/13 03:25:38;;;;;;;22.52;14.13;;;11.10;99.90;;;;;;5034877;28;20129;-71
2022/04/13 03:28:04;;;;;;;28.27;15.45;;;11.10;99.90;;;;;;5047301;28;20072;-71
2022/04/13 03:30:30;;;;;;;24.20;14.20;;;11.00;99.90;;;;;;5048109;28;20083;-71
2022/04/13 03:32:55;;;;;;;23.92;13.98;;;11.00;99.90;;;;;;5063794;28;20127;-71
2022/04/13 03:35:22;;;;;;;22.15;13.13;;;11.00;99.90;;;;;;5031297;28;20060;-71
2022/04/13 03:37:48;;;;;;;21.17;12.70;;;11.00;99.90;;;;;;5041547;28;20052;-71
2022/04/13 03:40:13;;;;;;;22.20;13.50;;;11.00;99.90;;;;;;5049795;28;20440;-71
2022/04/13 03:42:41;;;;;;;26.05;13.45;;;11.00;99.90;;;;;;5065268;28;20475;-71
2022/04/13 03:45:09;;;;;;;21.58;13.00;;;10.90;99.90;;;;;;5060914;28;20051;-71
2022/04/13 03:47:35;;;;;;;22.52;12.77;;;10.90;99.90;;;;;;5047717;28;20052;-72
2022/04/13 03:50:01;;;;;;;23.77;12.80;;;10.90;99.90;;;;;;5049113;28;20052;-71
2022/04/13 03:52:27;;;;;;;22.67;13.55;;;10.90;99.90;;;;;;5044434;28;20040;-71
2022/04/13 03:54:53;;;;;;;25.00;14.30;;;10.80;99.90;;;;;;5032704;28;20041;-71
2022/04/13 03:57:19;;;;;;;21.35;12.48;;;10.80;99.90;;;;;;5045148;28;20512;-71
2022/04/13 03:59:44;;;;;;;23.88;13.38;;;10.80;99.90;;;;;;5061841;28;20048;-70
2022/04/13 04:02:10;;;;;;;22.67;13.05;;;10.80;99.90;;;;;;5067234;28;20048;-71
2022/04/13 04:04:36;;;;;;;22.95;13.88;;;10.80;99.90;;;;;;5049099;28;20056;-71
2022/04/13 04:07:01;;;;;;;26.55;14.18;;;10.70;99.90;;;;;;5041545;28;20048;-71
2022/04/13 04:09:27;;;;;;;28.27;15.48;;;10.80;99.90;;;;;;5035302;28;20493;-71
2022/04/13 04:11:53;;;;;;;24.65;14.10;;;10.80;99.90;;;;;;5033493;28;20074;-72
2022/04/13 04:14:18;;;;;;;27.15;14.75;;;10.90;99.90;;;;;;5047954;28;20028;-71
2022/04/13 04:16:44;;;;;;;22.83;14.35;;;10.80;99.90;;;;;;5064534;28;20044;-71
2022/04/13 04:19:10;;;;;;;25.42;14.95;;;10.80;99.90;;;;;;5067013;28;20389;-70
2022/04/13 04:21:36;;;;;;;24.20;13.65;;;10.80;99.90;;;;;;5064112;28;20044;-70
2022/04/13 04:24:02;;;;;;;24.70;14.60;;;10.80;99.90;;;;;;5063019;28;20481;-71
2022/04/13 04:26:28;;;;;;;27.17;14.07;;;10.80;99.90;;;;;;5048511;28;20061;-71
2022/04/13 04:28:53;;;;;;;24.25;13.38;;;10.70;99.90;;;;;;5063193;28;20409;-70
2022/04/13 04:31:49;;;;;;;26.50;14.15;;;10.80;99.90;;;;;;5044366;28;20052;-70
2022/04/13 04:34:08;;;;;;;22.65;13.43;;;10.70;99.90;;;;;;5039544;28;20526;-70
2022/04/13 04:36:34;;;;;;;22.80;13.90;;;10.80;99.90;;;;;;5028307;28;20051;-70
2022/04/13 04:38:59;;;;;;;22.75;14.20;;;10.80;99.90;;;;;;5061007;28;20063;-70
2022/04/13 04:41:25;;;;;;;24.75;14.38;;;10.80;99.90;;;;;;5064049;28;20048;-70
2022/04/13 04:43:51;;;;;;;24.38;14.45;;;10.70;99.90;;;;;;5064037;28;20604;-70
2022/04/13 04:46:17;;;;;;;27.77;13.40;;;10.70;99.90;;;;;;5063779;28;20242;-70
2022/04/13 04:48:42;;;;;;;27.38;14.48;;;10.70;99.90;;;;;;5057626;28;20045;-70
2022/04/13 04:51:09;;;;;;;31.17;15.27;;;10.70;99.90;;;;;;5063988;28;20544;-71
2022/04/13 04:53:36;;;;;;;28.63;13.73;;;10.90;99.90;;;;;;5065041;28;20831;-71
2022/04/13 04:56:01;;;;;;;24.77;13.45;;;10.70;99.90;;;;;;5031419;28;20036;-71
2022/04/13 04:58:27;;;;;;;24.38;14.07;;;10.70;99.90;;;;;;5060713;28;20041;-71
2022/04/13 05:00:53;;;;;;;27.60;14.27;;;10.70;99.90;;;;;;5044051;28;20195;-71
2022/04/13 05:03:19;;;;;;;24.65;14.50;;;10.70;99.90;;;;;;5048387;28;20067;-71
2022/04/13 05:05:45;;;;;;;28.83;15.25;;;10.80;99.90;;;;;;5043833;28;20053;-71
2022/04/13 05:08:11;;;;;;;28.92;15.88;;;10.80;99.90;;;;;;5062802;28;20159;-72
2022/04/13 05:10:37;;;;;;;31.58;16.17;;;10.80;99.90;;;;;;5044208;28;20037;-71
2022/04/13 05:13:03;;;;;;;30.35;14.68;;;10.80;99.90;;;;;;5062242;28;20065;-72
2022/04/13 05:15:29;;;;;;;26.30;15.52;;;10.90;99.90;;;;;;5026212;28;20107;-71
2022/04/13 05:17:55;;;;;;;24.60;14.70;;;10.90;99.90;;;;;;5031531;28;20041;-71
2022/04/13 05:20:21;;;;;;;31.05;16.15;;;10.90;99.90;;;;;;5037321;28;20041;-72
2022/04/13 05:22:54;;;;;;;30.50;15.48;;;10.90;99.90;;;;;;5042854;28;20097;-71
2022/04/13 05:25:20;;;;;;;33.00;16.77;;;10.90;99.90;;;;;;5040683;28;20075;-71
2022/04/13 05:27:49;;;;;;;28.95;15.25;;;11.00;99.90;;;;;;5061642;28;20135;-71
2022/04/13 05:30:14;;;;;;;28.10;15.60;;;11.00;99.90;;;;;;5053760;28;20051;-70
2022/04/13 05:32:50;;;;;;;28.60;16.23;;;11.00;99.90;;;;;;5057585;28;20456;-70
2022/04/13 05:35:17;;;;;;;29.23;17.17;;;11.10;99.90;;;;;;5072735;28;20049;-71
2022/04/13 05:37:43;;;;;;;34.67;17.50;;;11.20;99.90;;;;;;5062272;28;20044;-71
2022/04/13 05:40:09;;;;;;;33.58;17.08;;;11.30;99.90;;;;;;5062690;28;20045;-71
2022/04/13 05:42:37;;;;;;;33.63;17.40;;;11.10;99.90;;;;;;5067307;28;20042;-71
2022/04/13 05:45:04;;;;;;;33.42;18.33;;;11.20;99.90;;;;;;5053865;28;20500;-71
2022/04/13 05:47:29;;;;;;;31.48;18.20;;;11.20;99.90;;;;;;5024310;28;20051;-71
2022/04/13 05:49:55;;;;;;;32.83;17.33;;;11.50;99.90;;;;;;5055057;28;20402;-71
2022/04/13 05:52:21;;;;;;;29.23;17.92;;;11.50;99.90;;;;;;5047295;28;20134;-71
2022/04/13 05:54:46;;;;;;;34.72;18.60;;;11.50;99.90;;;;;;5057477;28;20048;-71
2022/04/13 05:57:12;;;;;;;29.60;16.77;;;11.60;99.90;;;;;;5050844;28;20056;-71
2022/04/13 05:59:38;;;;;;;28.67;16.85;;;11.80;99.90;;;;;;5053532;28;20118;-71
2022/04/13 06:02:04;;;;;;;31.45;18.17;;;11.90;99.90;;;;;;5019962;28;20042;-71
2022/04/13 06:04:31;;;;;;;31.05;17.88;;;12.00;99.90;;;;;;5072257;28;20048;-71
2022/04/13 06:06:57;;;;;;;31.80;18.25;;;12.00;99.90;;;;;;5059454;28;20045;-71
2022/04/13 06:09:23;;;;;;;28.95;17.92;;;12.00;99.90;;;;;;5047574;28;20036;-71
2022/04/13 06:11:49;;;;;;;29.73;16.80;;;12.10;99.90;;;;;;5048602;28;20378;-71
2022/04/13 06:14:15;;;;;;;30.17;17.42;;;12.20;99.90;;;;;;5044195;28;20036;-71
2022/04/13 06:16:41;;;;;;;27.65;16.52;;;12.30;99.90;;;;;;5051083;28;20059;-71
2022/04/13 06:19:06;;;;;;;29.58;16.70;;;12.50;99.90;;;;;;5069142;28;20052;-71
2022/04/13 06:21:32;;;;;;;29.42;16.92;;;12.80;99.90;;;;;;5015744;28;20048;-71
2022/04/13 06:23:58;;;;;;;32.45;17.02;;;12.80;99.90;;;;;;5047591;28;20135;-71
2022/04/13 06:26:23;;;;;;;27.38;16.50;;;13.00;99.90;;;;;;5058281;28;20128;-71
2022/04/13 06:28:49;;;;;;;27.98;16.05;;;13.10;99.90;;;;;;5059265;28;20427;-71
2022/04/13 06:31:15;;;;;;;25.40;15.45;;;13.40;99.90;;;;;;5070249;28;20041;-71
2022/04/13 06:33:40;;;;;;;29.25;16.15;;;13.40;99.90;;;;;;5066082;28;20251;-71
2022/04/13 06:36:06;;;;;;;28.27;15.63;;;14.00;99.90;;;;;;5055675;28;20115;-70
2022/04/13 06:38:32;;;;;;;26.85;15.30;;;14.70;99.90;;;;;;5055271;28;20043;-72
2022/04/13 06:40:58;;;;;;;29.38;14.65;;;14.80;99.90;;;;;;5030490;28;20401;-71
2022/04/13 06:43:23;;;;;;;26.05;15.10;;;14.70;99.90;;;;;;5049042;28;20040;-71
2022/04/13 06:45:49;;;;;;;25.55;14.02;;;14.50;99.90;;;;;;5050119;28;20525;-71
2022/04/13 06:48:15;;;;;;;30.50;15.95;;;14.40;99.90;;;;;;5065711;28;20047;-72
2022/04/13 06:50:40;;;;;;;26.27;16.02;;;14.20;99.90;;;;;;5045847;28;20344;-71
2022/04/13 06:53:06;;;;;;;23.23;14.32;;;14.10;99.90;;;;;;5045718;28;20044;-72
2022/04/13 06:55:32;;;;;;;27.33;15.32;;;14.10;99.90;;;;;;5042065;28;20053;-72
2022/04/13 06:57:57;;;;;;;25.67;14.90;;;14.00;99.90;;;;;;5036143;28;20520;-71
2022/04/13 07:00:23;;;;;;;25.77;15.27;;;13.90;99.90;;;;;;5030969;28;20460;-71
2022/04/13 07:02:49;;;;;;;28.42;15.52;;;13.90;99.90;;;;;;5065123;28;20044;-71
2022/04/13 07:05:15;;;;;;;25.13;14.18;;;13.90;99.90;;;;;;5045366;28;20058;-71
2022/04/13 07:07:41;;;;;;;25.88;15.18;;;13.90;99.90;;;;;;5050695;28;20036;-71
2022/04/13 07:10:07;;;;;;;29.88;15.20;;;13.90;99.90;;;;;;5043625;28;20165;-71
2022/04/13 07:12:37;;;;;;;25.88;15.10;;;14.10;99.90;;;;;;5058365;28;20040;-72
2022/04/13 07:15:03;;;;;;;23.98;13.90;;;14.30;99.90;;;;;;5047075;28;20082;-72
2022/04/13 07:17:29;;;;;;;29.75;13.95;;;14.60;99.90;;;;;;5038526;28;20123;-71
2022/04/13 07:19:55;;;;;;;26.40;14.13;;;14.90;99.90;;;;;;5036557;28;20046;-72
2022/04/13 07:22:21;;;;;;;24.73;12.88;;;15.20;99.90;;;;;;5047838;28;20059;-72
2022/04/13 07:24:47;;;;;;;24.48;14.02;;;15.50;99.90;;;;;;5039934;28;20075;-71
2022/04/13 07:27:13;;;;;;;25.83;13.25;;;15.70;99.90;;;;;;5012054;28;20095;-71
2022/04/13 07:29:39;;;;;;;23.60;12.45;;;15.70;99.90;;;;;;5043889;28;20040;-71
2022/04/13 07:32:06;;;;;;;26.83;12.85;;;15.60;99.90;;;;;;5041011;28;20178;-73
2022/04/13 07:34:32;;;;;;;21.85;12.60;;;15.50;99.90;;;;;;5039382;28;20044;-71
2022/04/13 07:36:58;;;;;;;23.33;11.65;;;15.40;99.90;;;;;;5039127;28;20056;-71
2022/04/13 07:39:25;;;;;;;23.30;11.93;;;15.40;99.90;;;;;;5057548;28;20045;-70
2022/04/13 07:41:50;;;;;;;23.63;12.27;;;15.30;99.90;;;;;;5039676;28;20094;-72
2022/04/13 07:44:16;;;;;;;24.20;11.93;;;15.30;99.90;;;;;;5037641;28;20379;-72
2022/04/13 07:46:42;;;;;;;25.88;10.85;;;15.10;99.90;;;;;;5037346;28;20055;-72
2022/04/13 07:49:08;;;;;;;19.70;11.63;;;15.10;99.90;;;;;;5038320;28;20448;-72
2022/04/13 07:51:34;;;;;;;19.88;11.07;;;15.00;99.90;;;;;;5040616;28;20515;-71
2022/04/13 07:54:03;;;;;;;23.25;11.02;;;14.90;99.90;;;;;;5040844;28;20057;-72
2022/04/13 07:56:29;;;;;;;24.58;11.20;;;14.90;99.90;;;;;;5023645;28;20623;-72
2022/04/13 07:58:55;;;;;;;21.85;11.65;;;14.90;99.90;;;;;;5029568;28;20040;-72
2022/04/13 08:01:21;;;;;;;20.85;11.85;;;14.90;99.90;;;;;;5033193;28;20028;-72
2022/04/13 08:03:46;;;;;;;20.38;10.95;;;14.90;99.90;;;;;;5066757;28;20098;-71
2022/04/13 08:06:12;;;;;;;23.83;11.00;;;15.00;99.90;;;;;;5030033;28;20459;-71
2022/04/13 08:08:39;;;;;;;20.38;11.73;;;15.10;99.90;;;;;;5040949;28;20448;-71
2022/04/13 08:11:05;;;;;;;23.52;11.43;;;15.10;99.90;;;;;;5058017;28;20040;-72
2022/04/13 08:13:32;;;;;;;22.90;11.63;;;15.30;99.90;;;;;;5042174;28;20080;-71
2022/04/13 08:15:58;;;;;;;23.33;11.60;;;15.30;99.90;;;;;;5057338;28;20119;-72
2022/04/13 08:18:23;;;;;;;22.95;10.80;;;15.40;99.90;;;;;;5037774;28;20151;-73
2022/04/13 08:20:50;;;;;;;20.73;10.60;;;15.60;99.90;;;;;;5040394;28;20056;-71
2022/04/13 08:23:16;;;;;;;18.95;9.70;;;15.70;99.90;;;;;;5040111;28;20127;-72
2022/04/13 08:25:42;;;;;;;21.30;9.80;;;16.00;99.90;;;;;;5041202;28;20183;-72
2022/04/13 08:28:08;;;;;;;22.27;10.48;;;16.50;99.90;;;;;;5041051;28;20124;-71
2022/04/13 08:30:34;;;;;;;19.20;10.23;;;16.90;99.90;;;;;;5041020;28;20635;-72
2022/04/13 08:33:00;;;;;;;18.15;9.70;;;17.10;99.90;;;;;;5040828;28;20045;-72
2022/04/13 08:35:26;;;;;;;17.10;9.95;;;17.40;99.90;;;;;;5017130;28;20078;-72
2022/04/13 08:37:51;;;;;;;19.45;10.60;;;17.70;99.90;;;;;;5026040;28;20105;-71
2022/04/13 08:40:19;;;;;;;19.20;9.65;;;17.80;99.90;;;;;;5047317;28;20444;-72
2022/04/13 08:42:47;;;;;;;22.25;9.80;;;17.80;99.90;;;;;;5063601;28;20048;-71
2022/04/13 08:45:32;;;;;;;19.83;9.07;;;17.80;99.90;;;;;;5036137;28;20068;-71
2022/04/13 08:47:59;;;;;;;14.95;8.18;;;17.80;99.90;;;;;;5015420;28;20067;-71
2022/04/13 08:50:30;;;;;;;17.80;9.02;;;17.80;99.90;;;;;;5060019;28;20817;-71
2022/04/13 08:53:02;;;;;;;15.73;8.27;;;17.80;99.90;;;;;;5066221;28;20048;-73
2022/04/13 08:55:30;;;;;;;16.77;8.43;;;17.90;99.90;;;;;;5073569;28;20386;-71
2022/04/13 08:58:20;;;;;;;20.02;8.60;;;18.00;99.90;;;;;;5070537;28;20413;-72
2022/04/13 09:00:49;;;;;;;16.70;7.88;;;17.80;99.90;;;;;;5052123;28;20051;-72
2022/04/13 09:03:33;;;;;;;16.70;7.10;;;17.80;99.90;;;;;;5049098;28;20040;-72
2022/04/13 09:05:59;;;;;;;15.07;7.30;;;17.80;99.90;;;;;;5070172;28;20044;-72
2022/04/13 09:08:34;;;;;;;14.35;7.38;;;17.80;99.90;;;;;;5051902;28;20037;-72
2022/04/13 09:11:02;;;;;;;18.35;6.68;;;17.90;99.90;;;;;;5025727;28;20578;-72
2022/04/13 09:13:32;;;;;;;13.63;6.70;;;18.10;99.90;;;;;;5060718;28;20063;-72
2022/04/13 09:15:59;;;;;;;15.80;6.78;;;18.40;99.90;;;;;;5041285;28;20536;-72
2022/04/13 09:18:25;;;;;;;14.82;6.95;;;18.50;99.90;;;;;;5070982;28;20479;-72
2022/04/13 09:20:51;;;;;;;15.85;7.07;;;18.90;99.90;;;;;;5054015;28;20054;-72
2022/04/13 09:23:19;;;;;;;14.82;6.25;;;19.10;99.90;;;;;;5071136;28;20049;-72
2022/04/13 09:25:46;;;;;;;11.80;5.47;;;19.30;99.90;;;;;;5074117;28;20105;-72
2022/04/13 09:28:11;;;;;;;12.85;5.80;;;19.60;99.90;;;;;;5046047;28;20142;-72
2022/04/13 09:30:37;;;;;;;12.38;5.88;;;19.60;99.90;;;;;;5083046;28;20579;-71
2022/04/13 09:33:04;;;;;;;16.02;5.72;;;19.70;99.90;;;;;;5060364;28;20036;-72
2022/04/13 09:35:34;;;;;;;15.63;5.97;;;19.80;99.90;;;;;;5061780;28;20043;-72
2022/04/13 09:38:04;;;;;;;15.07;6.28;;;19.90;99.90;;;;;;5049319;28;20494;-72
2022/04/13 09:40:34;;;;;;;10.80;4.75;;;20.00;99.90;;;;;;5044674;28;20518;-72
2022/04/13 09:43:11;;;;;;;10.82;4.30;;;20.10;99.90;;;;;;5075806;28;20392;-72
2022/04/13 09:45:45;;;;;;;10.48;3.78;;;20.20;99.90;;;;;;5076266;28;20048;-71
2022/04/13 09:48:16;;;;;;;10.93;4.32;;;20.30;99.90;;;;;;5062750;28;20052;-72
2022/04/13 09:50:43;;;;;;;;;;;20.30;99.90;;;;;;5061820;28;20793;-72
2022/04/13 09:53:10;;;;;;;12.68;5.30;;;20.30;99.90;;;;;;5084365;28;19928;-72
2022/04/13 09:55:53;;;;;;;13.23;5.43;;;20.20;99.90;;;;;;5056219;28;20242;-73
2022/04/13 09:58:22;;;;;;;15.52;5.55;;;20.20;99.90;;;;;;5056939;28;20582;-72
2022/04/13 10:00:50;;;;;;;12.38;4.95;;;20.30;99.90;;;;;;5063271;28;20044;-72
2022/04/13 10:03:17;;;;;;;13.15;4.95;;;20.30;99.90;;;;;;5044207;28;20049;-72
2022/04/13 10:06:02;;;;;;;12.05;5.13;;;20.40;99.90;;;;;;5050783;28;20071;-73
2022/04/13 10:08:30;;;;;;;11.20;4.28;;;20.40;99.90;;;;;;5067523;28;20076;-73
2022/04/13 10:10:57;;;;;;;9.85;4.00;;;20.40;99.90;;;;;;5049585;28;20545;-72
2022/04/13 10:13:31;;;;;;;9.73;4.53;;;20.40;99.90;;;;;;5050058;28;20040;-72
2022/04/13 10:15:59;;;;;;;13.23;4.63;;;20.40;99.90;;;;;;5049994;28;20045;-72
2022/04/13 10:18:25;;;;;;;12.10;4.80;;;20.30;99.90;;;;;;5068115;28;20505;-72
2022/04/13 10:20:51;;;;;;;9.48;4.07;;;20.30;99.90;;;;;;5050733;28;20361;-72
2022/04/13 10:23:17;;;;;;;10.02;4.05;;;20.30;99.90;;;;;;5046747;28;20456;-73
2022/04/13 10:25:43;;;;;;;10.23;4.28;;;20.30;99.90;;;;;;5056749;28;20047;-72
2022/04/13 10:28:12;;;;;;;9.43;3.83;;;20.30;99.90;;;;;;5048291;28;20040;-72
2022/04/13 10:30:41;;;;;;;11.50;4.13;;;20.40;99.90;;;;;;5075584;28;20085;-72
2022/04/13 10:33:11;;;;;;;11.13;4.72;;;20.50;99.90;;;;;;5078835;28;20059;-73
2022/04/13 10:35:42;;;;;;;10.75;5.13;;;20.50;99.90;;;;;;5066758;28;20083;-72
2022/04/13 10:38:09;;;;;;;16.65;4.95;;;20.50;99.90;;;;;;5059875;28;20051;-71
2022/04/13 10:40:42;;;;;;;12.20;4.85;;;20.60;99.90;;;;;;5079155;28;20046;-72
2022/04/13 10:43:12;;;;;;;10.70;3.67;;;20.40;99.90;;;;;;5077478;28;20055;-71
2022/04/13 10:45:46;;;;;;;12.38;4.13;;;20.00;99.90;;;;;;5055231;28;20071;-72
2022/04/13 10:48:18;;;;;;;10.52;3.70;;;19.80;99.90;;;;;;5037587;28;20051;-72
2022/04/13 10:50:57;;;;;;;13.98;4.78;;;19.70;99.90;;;;;;5076226;28;20134;-73
2022/04/13 10:53:29;;;;;;;12.40;4.85;;;19.60;99.90;;;;;;5079793;28;20433;-72
2022/04/13 10:56:02;;;;;;;12.20;4.75;;;19.80;99.90;;;;;;5057344;28;20081;-73
2022/04/13 10:59:01;;;;;;;10.77;4.45;;;19.80;99.90;;;;;;5052011;28;20048;-73
2022/04/13 11:01:46;;;;;;;12.80;4.95;;;19.80;99.90;;;;;;5058258;28;20098;-73
2022/04/13 11:04:12;;;;;;;12.55;4.53;;;19.80;99.90;;;;;;5026956;28;20381;-72
2022/04/13 11:06:40;;;;;;;13.60;5.53;;;19.90;99.90;;;;;;5058617;28;20050;-73
2022/04/13 11:09:25;;;;;;;14.80;5.03;;;20.00;99.90;;;;;;5038053;28;20060;-73
2022/04/13 11:11:56;;;;;;;9.27;4.00;;;20.00;99.90;;;;;;5040121;28;20489;-72
2022/04/13 11:14:24;;;;;;;13.40;4.15;;;19.90;99.90;;;;;;5046939;28;20437;-72
2022/04/13 11:17:15;;;;;;;14.75;4.70;;;19.70;99.90;;;;;;5054272;28;20412;-73
2022/04/13 11:19:41;;;;;;;14.80;5.10;;;19.50;99.90;;;;;;5039482;28;20448;-71
2022/04/13 11:22:08;;;;;;;10.95;4.28;;;19.30;99.90;;;;;;5051661;28;20047;-71
2022/04/13 11:24:47;;;;;;;12.57;4.22;;;19.20;99.90;;;;;;5052010;28;20043;-71
2022/04/13 11:27:14;;;;;;;11.48;4.32;;;19.20;99.90;;;;;;5059285;28;20066;-71
2022/04/13 11:29:41;;;;;;;13.48;4.38;;;19.30;99.90;;;;;;5077864;28;20116;-72
2022/04/13 11:32:16;;;;;;;10.45;3.13;;;19.30;99.90;;;;;;5063191;28;20044;-72
2022/04/13 11:34:50;;;;;;;9.20;3.22;;;19.20;99.90;;;;;;5078082;28;20580;-72
2022/04/13 11:37:19;;;;;;;10.15;3.20;;;19.20;99.90;;;;;;5044494;28;20043;-72
2022/04/13 11:39:45;;;;;;;13.55;3.17;;;19.10;99.90;;;;;;5063678;28;20583;-72
2022/04/13 11:42:15;;;;;;;12.30;3.70;;;18.90;99.90;;;;;;5045921;28;20044;-71
2022/04/13 11:44:49;;;;;;;12.88;4.03;;;18.80;99.90;;;;;;5056398;28;20040;-71
2022/04/13 11:47:16;;;;;;;13.32;4.05;;;18.60;99.90;;;;;;5027887;28;20048;-71
2022/04/13 11:49:56;;;;;;;14.32;4.30;;;18.50;99.90;;;;;;5041256;28;20118;-71
2022/04/13 11:52:54;;;;;;;15.05;4.97;;;18.40;99.90;;;;;;5056288;28;20583;-70
2022/04/13 11:55:27;;;;;;;12.48;4.00;;;18.30;99.90;;;;;;5046553;28;20284;-71
2022/04/13 11:58:02;;;;;;;14.95;5.38;;;18.30;99.90;;;;;;5056134;28;20139;-71
2022/04/13 12:00:44;;;;;;;11.98;4.00;;;18.20;99.90;;;;;;5039304;28;20048;-71
2022/04/13 12:03:24;;;;;;;14.45;4.82;;;18.20;99.90;;;;;;5012125;28;20098;-72
2022/04/13 12:05:52;;;;;;;14.10;5.10;;;18.20;99.90;;;;;;5022799;28;20059;-71
2022/04/13 12:08:29;;;;;;;14.77;5.60;;;18.10;99.90;;;;;;5039280;28;20056;-72
2022/04/13 12:10:58;;;;;;;14.15;4.95;;;18.00;99.90;;;;;;5025039;28;20128;-71
2022/04/13 12:13:24;;;;;;;14.90;5.10;;;17.90;99.90;;;;;;5039705;28;20041;-72
2022/04/13 12:15:53;;;;;;;15.77;5.72;;;17.80;99.90;;;;;;5042071;28;20467;-72
2022/04/13 12:18:20;;;;;;;15.05;4.93;;;17.80;99.90;;;;;;5020989;28;20059;-71
2022/04/13 12:20:47;;;;;;;13.40;4.82;;;17.70;99.90;;;;;;5020277;28;20385;-72
2022/04/13 12:23:25;;;;;;;15.93;5.35;;;17.50;99.90;;;;;;5035210;28;20045;-73
2022/04/13 12:25:56;;;;;;;16.83;4.97;;;17.50;99.90;;;;;;5046270;28;20519;-72
2022/04/13 12:28:23;;;;;;;17.70;4.93;;;17.40;99.90;;;;;;5039511;28;20047;-73
2022/04/13 12:31:09;;;;;;;14.57;5.00;;;17.40;99.90;;;;;;5035972;28;20277;-72
2022/04/13 12:33:38;;;;;;;13.73;5.05;;;17.40;99.90;;;;;;5017962;28;20056;-72
2022/04/13 12:36:05;;;;;;;14.50;4.30;;;17.40;99.90;;;;;;5054499;28;20044;-70